Time;durP1;ratioP1;P1;durP2;ratioP2;P2;SDS_P1;SDS_P2;PMS_P1;PMS_P2;Temp;Humidity;BMP_temperature;BMP_pressure;BME280_temperature;BME280_humidity;BME280_pressure;Samples;Min_cycle;Max_cycle;Signal;HPM_P1;HPM_P2
2022/12/09 00:00:32;;;;;;;0.10;0.10;;;;;;;2.82;69.87;100608.44;7356128;19;20014;-54
2022/12/09 00:02:58;;;;;;;0.10;0.10;;;;;;;3.22;70.27;100675.81;7350337;19;20010;-55
2022/12/09 00:05:23;;;;;;;0.00;0.00;;;;;;;3.19;70.49;100676.63;7353023;19;20068;-56
2022/12/09 00:07:49;;;;;;;0.10;0.10;;;;;;;3.13;70.29;100671.44;7352510;19;20022;-56
2022/12/09 00:10:14;;;;;;;0.10;0.10;;;;;;;3.09;70.27;100655.09;7352600;19;20976;-54
2022/12/09 00:12:40;;;;;;;0.10;0.10;;;;;;;3.11;70.68;100673.16;7352594;19;20030;-55
2022/12/09 00:15:06;;;;;;;0.10;0.10;;;;;;;2.99;69.77;100647.25;7351853;19;20053;-55
2022/12/09 00:17:31;;;;;;;0.00;0.00;;;;;;;3.03;69.72;100665.34;7353365;19;20018;-55
2022/12/09 00:19:56;;;;;;;0.00;0.00;;;;;;;3.05;70.09;100662.81;7351303;19;20014;-56
2022/12/09 00:22:22;;;;;;;0.00;0.00;;;;;;;2.92;70.71;100640.34;7355013;19;20034;-56
2022/12/09 00:24:47;;;;;;;0.00;0.00;;;;;;;3.00;70.89;100654.16;7349325;19;20003;-54
2022/12/09 00:27:13;;;;;;;0.10;0.10;;;;;;;2.97;71.32;100656.72;7355597;19;20002;-55
2022/12/09 00:29:38;;;;;;;0.00;0.00;;;;;;;2.84;70.56;100638.56;7351253;19;20077;-56
2022/12/09 00:32:03;;;;;;;0.10;0.10;;;;;;;2.93;70.19;100642.06;7355121;19;20018;-56
2022/12/09 00:34:29;;;;;;;0.10;0.10;;;;;;;2.94;69.87;100649.81;7354710;19;20002;-57
2022/12/09 00:36:54;;;;;;;0.10;0.10;;;;;;;2.82;70.23;100635.09;7356830;19;20010;-56
2022/12/09 00:39:20;;;;;;;0.00;0.00;;;;;;;2.83;70.43;100641.97;7357165;19;20014;-57
2022/12/09 00:41:45;;;;;;;0.00;0.00;;;;;;;2.83;69.52;100643.69;7357790;19;20035;-55
2022/12/09 00:44:11;;;;;;;0.00;0.00;;;;;;;2.71;69.73;100629.00;7354716;19;20013;-55
2022/12/09 00:46:36;;;;;;;0.10;0.10;;;;;;;2.64;69.88;100614.34;7363314;19;20014;-57
2022/12/09 00:49:03;;;;;;;0.00;0.00;;;;;;;2.76;69.50;100650.53;7362896;19;20007;-57
2022/12/09 00:51:28;;;;;;;0.00;0.00;;;;;;;2.56;69.80;100618.56;7356920;19;20626;-55
2022/12/09 00:53:54;;;;;;;0.00;0.00;;;;;;;2.54;69.73;100618.56;7362549;19;20030;-54
2022/12/09 00:56:27;;;;;;;0.10;0.10;;;;;;;2.65;70.07;100647.00;7363714;19;20117;-55
2022/12/09 00:58:54;;;;;;;0.10;0.10;;;;;;;2.47;69.96;100618.47;7363088;19;20037;-55
2022/12/09 01:01:19;;;;;;;0.00;0.00;;;;;;;2.15;70.37;100571.81;7364458;19;21427;-56
2022/12/09 01:03:45;;;;;;;0.10;0.10;;;;;;;2.17;69.62;100591.56;7360310;19;20014;-54
2022/12/09 01:06:16;;;;;;;0.03;0.03;;;;;;;2.52;70.08;100650.31;7362818;19;24456;-54
2022/12/09 01:08:42;;;;;;;0.10;0.10;;;;;;;2.46;69.63;100639.94;7361289;19;20014;-55
2022/12/09 01:11:10;;;;;;;0.00;0.00;;;;;;;2.33;69.90;100624.38;7364676;19;20006;-56
2022/12/09 01:13:37;;;;;;;0.00;0.00;;;;;;;2.33;69.89;100623.50;7359335;19;20817;-55
2022/12/09 01:16:02;;;;;;;0.00;0.00;;;;;;;2.33;70.10;100632.13;7363837;19;20020;-56
2022/12/09 01:18:27;;;;;;;0.10;0.10;;;;;;;2.25;69.78;100620.00;7361028;19;20006;-56
2022/12/09 01:20:57;;;;;;;0.00;0.00;;;;;;;2.29;70.20;100637.22;7365815;19;20702;-55
2022/12/09 01:23:22;;;;;;;0.10;0.10;;;;;;;2.19;69.94;100631.13;7363722;19;20378;-54
2022/12/09 01:25:48;;;;;;;0.10;0.10;;;;;;;2.22;70.05;100646.59;7362337;19;20018;-54
2022/12/09 01:28:13;;;;;;;0.00;0.00;;;;;;;2.19;70.44;100640.56;7362112;19;20474;-55
2022/12/09 01:30:39;;;;;;;0.10;0.10;;;;;;;2.08;69.87;100627.56;7362630;19;20039;-54
2022/12/09 01:33:04;;;;;;;0.00;0.00;;;;;;;1.99;70.24;100612.88;7362678;19;20039;-55
2022/12/09 01:35:29;;;;;;;0.10;0.10;;;;;;;1.98;70.37;100616.31;7363517;19;20378;-56
2022/12/09 01:37:55;;;;;;;0.10;0.10;;;;;;;1.92;70.44;100599.91;7362542;19;20010;-56
2022/12/09 01:40:20;;;;;;;0.10;0.10;;;;;;;2.03;70.76;100618.94;7362298;19;20006;-55
2022/12/09 01:42:49;;;;;;;0.10;0.10;;;;;;;1.98;70.16;100625.75;7360731;19;20003;-54
2022/12/09 01:45:29;;;;;;;0.10;0.10;;;;;;;2.01;70.80;100625.75;7363370;19;20026;-56
2022/12/09 01:48:10;;;;;;;0.10;0.10;;;;;;;1.97;71.03;100639.44;7363177;19;20034;-55
2022/12/09 01:50:38;;;;;;;0.10;0.10;;;;;;;1.75;70.52;100608.31;7361058;19;20595;-56
2022/12/09 01:53:05;;;;;;;0.10;0.10;;;;;;;1.88;70.54;100635.06;7358869;19;20868;-57
2022/12/09 01:55:31;;;;;;;0.00;0.00;;;;;;;1.84;70.19;100633.31;7361670;19;20018;-54
2022/12/09 01:57:57;;;;;;;0.10;0.10;;;;;;;1.69;70.48;100618.53;7361360;19;20010;-53
2022/12/09 02:00:22;;;;;;;0.10;0.10;;;;;;;1.74;70.90;100640.03;7360730;19;20010;-54
2022/12/09 02:02:50;;;;;;;0.10;0.10;;;;;;;1.75;71.09;100644.34;7361431;19;20011;-54
2022/12/09 02:05:16;;;;;;;0.10;0.10;;;;;;;1.60;71.20;100618.41;7361798;19;20007;-53
2022/12/09 02:07:41;;;;;;;0.10;0.10;;;;;;;1.62;71.56;100627.00;7359725;19;20123;-56
2022/12/09 02:10:15;;;;;;;0.00;0.00;;;;;;;1.66;71.88;100633.06;7361094;19;20958;-55
2022/12/09 02:12:49;;;;;;;0.08;0.08;;;;;;;1.50;71.86;100612.28;7361238;19;20561;-55
2022/12/09 02:15:38;;;;;;;0.00;0.00;;;;;;;1.64;71.20;100640.78;7358774;19;20002;-56
2022/12/09 02:18:33;;;;;;;0.00;0.00;;;;;;;1.55;72.08;100630.38;7357138;19;20493;-54
2022/12/09 02:21:08;;;;;;;0.10;0.10;;;;;;;1.59;71.70;100639.84;7256705;19;2004381;-55
2022/12/09 02:23:40;;;;;;;0.00;0.00;;;;;;;1.52;72.09;100633.78;7357006;19;20006;-55
2022/12/09 02:26:05;;;;;;;0.10;0.10;;;;;;;1.53;72.14;100637.22;7359640;19;20014;-54
2022/12/09 02:28:33;;;;;;;0.10;0.10;;;;;;;1.52;72.35;100636.34;7362249;19;20015;-53
2022/12/09 02:31:17;;;;;;;0.10;0.10;;;;;;;1.50;72.57;100638.03;7359923;19;20772;-57
2022/12/09 02:34:22;;;;;;;0.10;0.10;;;;;;;1.50;71.61;100643.16;7356889;19;20045;-56
2022/12/09 02:37:21;;;;;;;0.10;0.10;;;;;;;1.48;72.05;100633.72;7259427;19;2004387;-53
2022/12/09 02:40:10;;;;;;;0.10;0.10;;;;;;;1.41;72.11;100631.88;7258573;19;2004509;-55
2022/12/09 02:42:37;;;;;;;0.00;0.00;;;;;;;1.43;72.46;100635.38;7360889;19;20912;-54
2022/12/09 02:45:06;;;;;;;0.10;0.10;;;;;;;1.29;72.10;100618.03;7359695;19;20010;-56
2022/12/09 02:47:35;;;;;;;0.10;0.10;;;;;;;1.17;72.21;100606.72;7362219;19;20533;-57
2022/12/09 02:50:07;;;;;;;0.10;0.10;;;;;;;1.39;71.41;100646.44;7357099;19;20039;-55
2022/12/09 02:52:34;;;;;;;0.10;0.10;;;;;;;1.33;71.96;100638.66;7362381;19;20452;-54
2022/12/09 02:55:03;;;;;;;0.00;0.00;;;;;;;1.33;71.57;100643.81;7358784;19;20010;-52
2022/12/09 02:57:33;;;;;;;0.10;0.10;;;;;;;1.29;71.96;100630.88;7361056;19;20006;-54
2022/12/09 02:59:58;;;;;;;0.10;0.10;;;;;;;1.28;71.62;100636.88;7353109;19;20126;-54
2022/12/09 03:02:30;;;;;;;0.03;0.03;;;;;;;1.29;71.59;100638.59;7364326;19;20031;-52
2022/12/09 03:05:01;;;;;;;0.00;0.00;;;;;;;1.29;71.73;100637.75;7363954;19;20014;-56
2022/12/09 03:07:38;;;;;;;0.00;0.00;;;;;;;1.24;71.59;100629.09;7354137;19;20767;-55
2022/12/09 03:10:14;;;;;;;0.00;0.00;;;;;;;1.19;71.95;100616.16;7359818;19;20023;-55
2022/12/09 03:12:46;;;;;;;0.00;0.00;;;;;;;1.22;71.91;100631.66;7358879;19;20014;-54
2022/12/09 03:15:16;;;;;;;0.00;0.00;;;;;;;1.15;71.70;100618.66;7360809;19;20010;-55
2022/12/09 03:17:44;;;;;;;0.10;0.10;;;;;;;1.20;71.69;100633.31;7362754;19;20030;-54
2022/12/09 03:20:15;;;;;;;0.03;0.03;;;;;;;1.18;71.92;100627.31;7353664;19;20023;-55
2022/12/09 03:22:43;;;;;;;0.03;0.03;;;;;;;1.18;71.22;100626.44;7361721;19;20010;-56
2022/12/09 03:25:17;;;;;;;0.10;0.10;;;;;;;1.12;70.74;100622.06;7361705;19;20013;-55
2022/12/09 03:27:57;;;;;;;0.10;0.10;;;;;;;1.14;71.03;100622.94;7359550;19;20018;-55
2022/12/09 03:30:23;;;;;;;0.00;0.00;;;;;;;1.09;70.85;100619.44;7362664;19;20416;-54
2022/12/09 03:32:50;;;;;;;0.10;0.10;;;;;;;1.11;70.65;100616.88;7355979;19;20032;-55
2022/12/09 03:35:22;;;;;;;0.10;0.10;;;;;;;0.95;71.19;100595.25;7358775;19;20037;-53
2022/12/09 03:37:49;;;;;;;0.10;0.10;;;;;;;1.03;71.18;100615.09;7361566;19;20011;-56
2022/12/09 03:40:22;;;;;;;0.10;0.10;;;;;;;1.03;71.34;100615.09;7360921;19;20010;-54
2022/12/09 03:42:59;;;;;;;0.05;0.05;;;;;;;1.03;71.07;100616.78;7359889;19;20073;-54
2022/12/09 03:45:25;;;;;;;0.00;0.00;;;;;;;0.95;70.62;100613.25;7362836;19;20026;-55
2022/12/09 03:47:51;;;;;;;0.10;0.10;;;;;;;0.89;70.35;100608.00;7356322;19;20018;-56
2022/12/09 03:50:17;;;;;;;0.10;0.10;;;;;;;0.86;70.76;100610.53;7362367;19;20021;-55
2022/12/09 03:52:48;;;;;;;0.00;0.00;;;;;;;0.84;71.17;100596.78;7358790;19;20477;-55
2022/12/09 03:55:52;;;;;;;0.00;0.00;;;;;;;0.92;70.99;100620.91;7357968;19;20080;-53
2022/12/09 03:58:17;;;;;;;0.00;0.00;;;;;;;0.85;70.73;100619.94;7257528;19;2004201;-53
2022/12/09 04:00:44;;;;;;;0.10;0.10;;;;;;;0.79;71.07;100601.84;7360556;19;20569;-54
2022/12/09 04:03:13;;;;;;;0.10;0.10;;;;;;;0.82;70.50;100608.78;7360440;19;20078;-52
2022/12/09 04:05:38;;;;;;;0.00;0.00;;;;;;;0.79;70.49;100599.28;7343311;19;20451;-55
2022/12/09 04:08:04;;;;;;;0.00;0.00;;;;;;;0.75;70.91;100603.50;7359276;19;20002;-56
2022/12/09 04:10:30;;;;;;;0.00;0.00;;;;;;;0.72;70.70;100595.78;7360405;19;20134;-55
2022/12/09 04:12:55;;;;;;;0.05;0.05;;;;;;;0.65;70.79;100590.50;7354594;19;20006;-53
2022/12/09 04:15:20;;;;;;;0.10;0.10;;;;;;;0.57;71.28;100582.69;7362692;19;20023;-53
2022/12/09 04:17:46;;;;;;;0.00;0.00;;;;;;;0.66;70.96;100598.25;7360525;19;20025;-54
2022/12/09 04:20:12;;;;;;;0.00;0.00;;;;;;;0.67;70.92;100599.97;7344997;19;20017;-55
2022/12/09 04:22:37;;;;;;;0.10;0.10;;;;;;;0.56;70.70;100580.97;7363359;19;20014;-54
2022/12/09 04:25:03;;;;;;;0.00;0.00;;;;;;;0.58;70.98;100588.69;7366225;19;20022;-56
2022/12/09 04:27:28;;;;;;;0.10;0.10;;;;;;;0.56;70.98;100586.09;7366908;19;20893;-55
2022/12/09 04:29:54;;;;;;;0.10;0.10;;;;;;;0.61;71.35;100601.56;7367552;19;20044;-56
2022/12/09 04:32:19;;;;;;;0.10;0.10;;;;;;;0.54;71.29;100592.91;7366759;19;20885;-52
2022/12/09 04:34:45;;;;;;;0.10;0.10;;;;;;;0.46;71.42;100589.38;7368347;19;20011;-54
2022/12/09 04:37:11;;;;;;;0.10;0.10;;;;;;;0.42;71.12;100575.59;7366425;19;20074;-54
2022/12/09 04:39:37;;;;;;;0.10;0.10;;;;;;;0.56;71.25;100601.53;7364790;19;20078;-55
2022/12/09 04:42:03;;;;;;;0.10;0.10;;;;;;;0.17;70.81;100530.66;7366385;19;20108;-52
2022/12/09 04:44:28;;;;;;;0.10;0.10;;;;;;;0.52;70.52;100594.59;7365908;19;20010;-53
2022/12/09 04:46:53;;;;;;;0.10;0.10;;;;;;;0.49;71.25;100590.25;7363146;19;20022;-55
2022/12/09 04:49:19;;;;;;;0.00;0.00;;;;;;;0.50;71.11;100596.25;7366182;19;20576;-54
2022/12/09 04:51:44;;;;;;;0.10;0.10;;;;;;;0.32;71.34;100566.00;7365368;19;20014;-56
2022/12/09 04:54:12;;;;;;;0.10;0.10;;;;;;;0.39;71.33;100575.53;7366374;19;20014;-52
2022/12/09 04:56:38;;;;;;;0.00;0.00;;;;;;;0.38;71.41;100581.50;7366746;19;20760;-52
2022/12/09 04:59:04;;;;;;;0.00;0.00;;;;;;;0.48;71.64;100597.94;7365302;19;21384;-55
2022/12/09 05:01:29;;;;;;;0.03;0.03;;;;;;;0.47;71.48;100596.22;7365775;19;20018;-53
2022/12/09 05:03:54;;;;;;;0.05;0.05;;;;;;;0.44;71.50;100591.03;7365113;19;20006;-53
2022/12/09 05:06:20;;;;;;;0.10;0.10;;;;;;;0.46;71.56;100591.94;7366316;19;20014;-52
2022/12/09 05:08:47;;;;;;;0.00;0.00;;;;;;;0.40;71.67;100584.97;7367291;19;20006;-54
2022/12/09 05:11:14;;;;;;;0.00;0.00;;;;;;;0.42;71.93;100587.56;7366707;19;20041;-54
2022/12/09 05:13:39;;;;;;;0.10;0.10;;;;;;;0.43;71.74;100597.00;7364063;19;20022;-56
2022/12/09 05:16:10;;;;;;;0.10;0.10;;;;;;;0.38;71.92;100580.66;7364954;19;20022;-55
2022/12/09 05:18:36;;;;;;;0.10;0.10;;;;;;;0.40;71.62;100589.22;7363598;19;20015;-54
2022/12/09 05:21:06;;;;;;;0.00;0.00;;;;;;;0.43;71.66;100594.44;7365661;19;21367;-57
2022/12/09 05:23:32;;;;;;;0.00;0.00;;;;;;;0.36;71.72;100587.47;7366865;19;20011;-56
2022/12/09 05:26:01;;;;;;;0.10;0.10;;;;;;;0.32;72.12;100585.69;7364307;19;20023;-53
2022/12/09 05:28:26;;;;;;;0.10;0.10;;;;;;;0.27;71.84;100574.47;7366963;19;20376;-57
2022/12/09 05:30:52;;;;;;;0.10;0.10;;;;;;;0.25;72.15;100572.75;7366655;19;24484;-56
2022/12/09 05:33:17;;;;;;;0.08;0.08;;;;;;;0.31;72.10;100583.97;7363393;19;20030;-54
2022/12/09 05:35:43;;;;;;;0.10;0.10;;;;;;;0.36;72.38;100582.34;7363821;19;20370;-54
2022/12/09 05:38:08;;;;;;;0.10;0.10;;;;;;;0.30;72.29;100577.06;7366265;19;20022;-53
2022/12/09 05:40:35;;;;;;;0.10;0.10;;;;;;;0.27;72.41;100571.91;7366323;19;20046;-55
2022/12/09 05:43:00;;;;;;;0.10;0.10;;;;;;;0.35;72.31;100581.44;7364767;19;20026;-54
2022/12/09 05:45:25;;;;;;;0.05;0.05;;;;;;;0.31;72.12;100573.69;7365331;19;20030;-52
2022/12/09 05:47:51;;;;;;;0.10;0.10;;;;;;;0.11;72.29;100545.97;7365800;19;20024;-52
2022/12/09 05:50:16;;;;;;;0.10;0.10;;;;;;;0.16;72.18;100554.63;7362185;19;20018;-52
2022/12/09 05:52:42;;;;;;;0.10;0.10;;;;;;;0.34;72.33;100581.44;7365022;19;20025;-53
2022/12/09 05:55:08;;;;;;;0.10;0.10;;;;;;;0.32;72.14;100585.69;7362915;19;20858;-55
2022/12/09 05:57:34;;;;;;;0.10;0.10;;;;;;;0.33;71.81;100584.84;7363961;19;20021;-55
2022/12/09 06:00:00;;;;;;;0.10;0.10;;;;;;;0.16;72.23;100544.34;7361882;19;20071;-54
2022/12/09 06:02:25;;;;;;;0.10;0.10;;;;;;;0.27;72.13;100566.78;7361617;19;20518;-55
2022/12/09 06:04:51;;;;;;;0.10;0.10;;;;;;;0.16;72.43;100552.06;7364452;19;20011;-54
2022/12/09 06:07:17;;;;;;;0.10;0.10;;;;;;;0.27;72.47;100569.34;7357085;19;20014;-52
2022/12/09 06:09:43;;;;;;;0.10;0.10;;;;;;;0.23;72.36;100556.44;7365164;19;20070;-54
2022/12/09 06:12:09;;;;;;;0.10;0.10;;;;;;;0.31;71.56;100573.69;7361904;19;20013;-55
2022/12/09 06:14:34;;;;;;;0.10;0.10;;;;;;;0.25;71.97;100571.84;7365734;19;20014;-52
2022/12/09 06:17:00;;;;;;;0.10;0.10;;;;;;;0.16;71.72;100556.31;7364441;19;20674;-53
2022/12/09 06:19:25;;;;;;;0.10;0.10;;;;;;;0.26;71.51;100571.03;7361041;19;20022;-53
2022/12/09 06:21:51;;;;;;;0.10;0.10;;;;;;;0.29;71.79;100576.22;7365006;19;20010;-55
2022/12/09 06:24:16;;;;;;;0.10;0.10;;;;;;;0.28;71.55;100568.50;7362464;19;20014;-53
2022/12/09 06:26:42;;;;;;;0.10;0.10;;;;;;;0.27;71.77;100566.78;7363425;19;20006;-55
2022/12/09 06:29:08;;;;;;;0.10;0.10;;;;;;;0.23;71.69;100569.28;7355570;19;20017;-54
2022/12/09 06:31:33;;;;;;;0.00;0.00;;;;;;;0.17;71.29;100558.91;7363603;19;20006;-54
2022/12/09 06:33:58;;;;;;;0.03;0.03;;;;;;;0.25;71.18;100569.28;7363606;19;20658;-54
2022/12/09 06:36:26;;;;;;;0.10;0.10;;;;;;;0.09;71.09;100544.19;7364135;19;20017;-52
2022/12/09 06:38:51;;;;;;;0.08;0.08;;;;;;;0.14;71.18;100551.13;7363604;19;20050;-52
2022/12/09 06:41:16;;;;;;;0.00;0.00;;;;;;;0.16;71.17;100554.63;7361044;19;20537;-53
2022/12/09 06:43:42;;;;;;;0.10;0.10;;;;;;;0.16;71.50;100558.88;7364072;19;20030;-53
2022/12/09 06:46:19;;;;;;;0.10;0.10;;;;;;;0.21;71.49;100565.84;7362845;19;20006;-54
2022/12/09 06:48:45;;;;;;;0.10;0.10;;;;;;;0.12;71.88;100552.81;7363676;19;20007;-53
2022/12/09 06:51:11;;;;;;;0.10;0.10;;;;;;;0.15;71.94;100558.03;7364518;19;20987;-54
2022/12/09 06:53:37;;;;;;;0.00;0.00;;;;;;;0.14;71.33;100553.72;7358972;19;20050;-54
2022/12/09 06:56:04;;;;;;;0.10;0.10;;;;;;;0.12;71.79;100547.69;7363331;19;20054;-53
2022/12/09 06:58:30;;;;;;;0.08;0.08;;;;;;;0.13;71.05;100553.69;7352192;19;20023;-56
2022/12/09 07:01:12;;;;;;;0.10;0.10;;;;;;;0.10;70.82;100549.38;7360817;19;20666;-51
2022/12/09 07:03:39;;;;;;;0.00;0.00;;;;;;;-0.03;70.82;100532.03;7354375;19;20009;-53
2022/12/09 07:06:06;;;;;;;0.05;0.05;;;;;;;0.09;71.12;100555.34;7358412;19;20026;-54
2022/12/09 07:08:32;;;;;;;0.00;0.00;;;;;;;0.01;71.13;100544.09;7362042;19;20081;-56
2022/12/09 07:10:57;;;;;;;0.10;0.10;;;;;;;0.08;71.38;100556.19;7362963;19;20414;-54
2022/12/09 07:13:23;;;;;;;0.00;0.00;;;;;;;-0.09;71.32;100537.06;7359252;19;20017;-54
2022/12/09 07:15:48;;;;;;;0.10;0.10;;;;;;;0.01;70.93;100558.63;7358729;19;20029;-56
2022/12/09 07:18:14;;;;;;;0.10;0.10;;;;;;;-0.04;71.22;100556.84;7358985;19;20017;-54
2022/12/09 07:20:39;;;;;;;0.00;0.00;;;;;;;0.05;71.14;100566.41;7360137;19;20607;-55
2022/12/09 07:23:04;;;;;;;0.00;0.00;;;;;;;-0.01;71.34;100556.88;7359382;19;20074;-54
2022/12/09 07:25:30;;;;;;;0.10;0.10;;;;;;;-0.04;70.92;100558.53;7358299;19;20021;-50
2022/12/09 07:27:56;;;;;;;0.10;0.10;;;;;;;-0.05;70.72;100554.22;7360540;19;20145;-55
2022/12/09 07:30:21;;;;;;;0.10;0.10;;;;;;;-0.05;71.27;100561.91;7361653;19;20030;-52
2022/12/09 07:32:46;;;;;;;0.10;0.10;;;;;;;-0.04;70.86;100561.09;7360791;19;20010;-54
2022/12/09 07:35:12;;;;;;;0.10;0.10;;;;;;;-0.14;71.20;100570.34;7354627;19;20090;-53
2022/12/09 07:37:38;;;;;;;0.00;0.00;;;;;;;-0.10;71.33;100559.28;7359269;19;20632;-55
2022/12/09 07:40:04;;;;;;;0.00;0.00;;;;;;;-0.16;70.75;100555.72;7350646;19;20645;-53
2022/12/09 07:42:30;;;;;;;0.10;0.10;;;;;;;-0.12;70.78;100560.94;7360954;19;20638;-53
2022/12/09 07:44:55;;;;;;;0.10;0.10;;;;;;;-0.13;70.71;100566.06;7354845;19;20018;-54
2022/12/09 07:47:20;;;;;;;0.00;0.00;;;;;;;-0.13;70.74;100569.50;7351747;19;20021;-52
2022/12/09 07:49:46;;;;;;;0.10;0.10;;;;;;;-0.17;71.00;100564.28;7340264;19;20026;-50
2022/12/09 07:52:12;;;;;;;0.10;0.10;;;;;;;-0.32;71.17;100549.44;7358401;19;20032;-59
2022/12/09 07:54:37;;;;;;;0.00;0.00;;;;;;;-0.22;71.35;100561.63;7358316;19;20022;-52
2022/12/09 07:57:03;;;;;;;0.10;0.10;;;;;;;-0.62;71.05;100496.72;7357998;19;20022;-54
2022/12/09 07:59:28;;;;;;;0.00;0.00;;;;;;;-0.22;71.10;100563.31;7355315;19;20046;-54
2022/12/09 08:01:53;;;;;;;0.10;0.10;;;;;;;-0.31;70.53;100546.91;7354288;19;20013;-56
2022/12/09 08:04:19;;;;;;;0.10;0.10;;;;;;;-0.41;70.97;100539.88;7354645;19;20017;-53
2022/12/09 08:06:44;;;;;;;0.10;0.10;;;;;;;-0.34;70.89;100556.28;7353537;19;20022;-55
2022/12/09 08:09:12;;;;;;;0.00;0.00;;;;;;;-0.28;70.78;100561.50;7355633;19;20017;-54
2022/12/09 08:11:38;;;;;;;0.10;0.10;;;;;;;-0.35;70.71;100559.69;7357860;19;20549;-56
2022/12/09 08:14:05;;;;;;;0.00;0.00;;;;;;;-0.34;70.76;100562.25;7359463;19;20018;-55
2022/12/09 08:16:32;;;;;;;0.10;0.10;;;;;;;-0.35;70.65;100568.25;7357592;19;20021;-53
2022/12/09 08:18:57;;;;;;;0.10;0.10;;;;;;;-0.40;70.48;100563.84;7359987;19;21159;-53
2022/12/09 08:21:26;;;;;;;0.10;0.10;;;;;;;-0.41;71.07;100567.22;7356362;19;20007;-55
2022/12/09 08:23:53;;;;;;;0.10;0.10;;;;;;;-0.40;70.99;100567.28;7357455;19;20003;-55
2022/12/09 08:26:21;;;;;;;0.00;0.00;;;;;;;-0.60;71.07;100535.25;7359234;19;20026;-55
2022/12/09 08:28:47;;;;;;;0.10;0.10;;;;;;;-0.51;70.79;100553.34;7358193;19;20006;-54
2022/12/09 08:31:16;;;;;;;0.10;0.10;;;;;;;-0.44;70.97;100570.63;7356821;19;20634;-55
2022/12/09 08:33:41;;;;;;;0.00;0.00;;;;;;;-0.46;71.02;100572.25;7357790;19;20014;-56
2022/12/09 08:36:17;;;;;;;0.00;0.00;;;;;;;-0.61;70.95;100541.19;7345594;19;20026;-55
2022/12/09 08:38:43;;;;;;;0.10;0.10;;;;;;;-0.46;70.71;100571.41;7356269;19;20006;-55
2022/12/09 08:41:08;;;;;;;0.00;0.00;;;;;;;-0.47;70.91;100573.09;7357901;19;20039;-53
2022/12/09 08:43:33;;;;;;;0.10;0.10;;;;;;;-0.52;71.07;100561.88;7352153;19;20051;-54
2022/12/09 08:45:59;;;;;;;0.00;0.00;;;;;;;-0.49;71.06;100572.22;7357796;19;20991;-55
2022/12/09 08:48:24;;;;;;;0.10;0.10;;;;;;;-0.49;71.38;100561.97;7356726;19;20018;-55
2022/12/09 08:50:50;;;;;;;0.00;0.00;;;;;;;-0.50;70.76;100565.38;7357348;19;20006;-54
2022/12/09 08:53:15;;;;;;;0.10;0.10;;;;;;;-0.53;71.33;100565.28;7356533;19;20423;-54
2022/12/09 08:55:41;;;;;;;0.00;0.00;;;;;;;-0.53;71.10;100563.59;7357900;19;20006;-53
2022/12/09 08:58:06;;;;;;;0.10;0.10;;;;;;;-0.69;71.18;100530.78;7356495;19;20018;-54
2022/12/09 09:00:32;;;;;;;0.10;0.10;;;;;;;-0.68;71.08;100526.53;7352155;19;20364;-54
2022/12/09 09:02:58;;;;;;;0.00;0.00;;;;;;;-0.68;71.24;100523.97;7355789;19;20085;-53
2022/12/09 09:05:23;;;;;;;0.10;0.10;;;;;;;-0.57;70.95;100548.13;7356308;19;20040;-55
2022/12/09 09:07:49;;;;;;;0.10;0.10;;;;;;;-0.57;71.30;100543.84;7359660;19;20034;-55
2022/12/09 09:10:14;;;;;;;0.00;0.00;;;;;;;-0.51;71.27;100558.47;7364120;19;20017;-55
2022/12/09 09:12:39;;;;;;;0.00;0.00;;;;;;;-0.61;71.34;100546.31;7364148;19;20574;-52
2022/12/09 09:15:05;;;;;;;0.00;0.00;;;;;;;-0.53;71.15;100549.91;7363995;19;20006;-53
2022/12/09 09:17:31;;;;;;;0.00;0.00;;;;;;;-0.49;71.23;100556.84;7362604;19;21257;-55
2022/12/09 09:19:56;;;;;;;0.10;0.10;;;;;;;-0.50;71.28;100560.25;7362045;19;20348;-56
2022/12/09 09:22:21;;;;;;;0.10;0.10;;;;;;;-0.48;71.50;100557.69;7360463;19;20122;-57
2022/12/09 09:24:47;;;;;;;0.08;0.08;;;;;;;-0.45;71.09;100566.31;7364795;19;20037;-54
2022/12/09 09:27:12;;;;;;;0.10;0.10;;;;;;;-0.54;71.08;100553.31;7361289;19;20015;-55
2022/12/09 09:29:37;;;;;;;0.10;0.10;;;;;;;-0.53;71.59;100547.34;7359717;19;20499;-55
2022/12/09 09:32:03;;;;;;;0.10;0.10;;;;;;;-0.59;71.84;100534.41;7362807;19;20006;-52
2022/12/09 09:34:28;;;;;;;0.00;0.00;;;;;;;-0.45;71.68;100556.06;7365224;19;20117;-54
2022/12/09 09:36:55;;;;;;;0.10;0.10;;;;;;;-0.38;71.70;100567.31;7360227;19;20019;-54
2022/12/09 09:39:21;;;;;;;0.00;0.00;;;;;;;-0.40;71.75;100564.72;7363544;19;20136;-53
2022/12/09 09:41:52;;;;;;;0.10;0.10;;;;;;;-0.30;71.46;100571.75;7361845;19;20038;-55
2022/12/09 09:44:42;;;;;;;0.00;0.00;;;;;;;-0.29;71.40;100570.91;7362218;19;20089;-55
2022/12/09 09:47:24;;;;;;;0.08;0.08;;;;;;;-0.30;71.67;100558.94;7359973;19;20082;-52
2022/12/09 09:50:15;;;;;;;0.00;0.00;;;;;;;-0.19;71.44;100568.53;7359327;19;20023;-54
2022/12/09 09:52:41;;;;;;;0.00;0.00;;;;;;;-0.19;71.85;100563.41;7257087;19;2004459;-55
2022/12/09 09:55:15;;;;;;;0.10;0.10;;;;;;;-0.08;71.75;100559.31;7359003;19;20023;-51
2022/12/09 09:57:48;;;;;;;0.10;0.10;;;;;;;0.01;71.73;100559.47;7359039;19;20452;-56
2022/12/09 10:00:30;;;;;;;0.03;0.03;;;;;;;0.11;72.13;100553.69;7361847;19;20014;-53
2022/12/09 10:03:00;;;;;;;0.00;0.00;;;;;;;0.22;72.33;100554.72;7363456;19;20449;-54
2022/12/09 10:05:34;;;;;;;0.00;0.00;;;;;;;0.38;72.04;100554.97;7359832;19;20944;-53
2022/12/09 10:08:24;;;;;;;0.10;0.10;;;;;;;0.59;72.44;100555.28;7361852;19;20010;-55
2022/12/09 10:11:22;;;;;;;0.00;0.00;;;;;;;0.82;72.93;100553.09;7361775;19;20014;-55
2022/12/09 10:13:57;;;;;;;0.10;0.10;;;;;;;1.07;72.63;100554.28;7257633;19;2004335;-53
2022/12/09 10:16:30;;;;;;;0.10;0.10;;;;;;;1.32;72.29;100557.16;7358119;19;20018;-54
2022/12/09 10:19:17;;;;;;;0.10;0.10;;;;;;;1.57;72.55;100554.03;7358506;19;20014;-55
2022/12/09 10:21:45;;;;;;;0.00;0.00;;;;;;;1.85;72.07;100544.03;7342836;19;20018;-56
2022/12/09 10:24:25;;;;;;;0.10;0.10;;;;;;;2.19;72.47;100548.69;7360002;19;20838;-56
2022/12/09 10:27:20;;;;;;;0.05;0.05;;;;;;;2.50;72.05;100548.94;7357361;19;20040;-56
2022/12/09 10:30:03;;;;;;;0.00;0.00;;;;;;;2.77;71.85;100548.25;7254953;19;2004433;-56
2022/12/09 10:32:32;;;;;;;0.08;0.08;;;;;;;3.01;71.87;100547.53;7361211;19;20006;-56
2022/12/09 10:34:58;;;;;;;0.00;0.00;;;;;;;3.18;71.01;100545.03;7357201;19;20010;-56
2022/12/09 10:37:29;;;;;;;0.00;0.00;;;;;;;3.49;71.20;100546.03;7356102;19;20050;-55
2022/12/09 10:40:03;;;;;;;0.00;0.00;;;;;;;3.73;70.37;100538.38;7359473;19;20013;-57
2022/12/09 10:45:17;;;;;;;0.00;0.00;;;;;;;4.08;70.47;100516.91;7358364;19;20110;-54
2022/12/09 10:47:49;;;;;;;0.00;0.00;;;;;;;4.28;70.29;100507.44;7358965;19;20086;-57
2022/12/09 10:50:24;;;;;;;0.10;0.10;;;;;;;4.64;69.75;100540.16;7358430;19;20021;-55
2022/12/09 10:52:50;;;;;;;0.00;0.00;;;;;;;4.73;69.04;100544.47;7361129;19;20020;-56
2022/12/09 10:55:29;;;;;;;0.00;0.00;;;;;;;4.68;69.47;100504.81;7358918;19;20014;-55
2022/12/09 10:58:17;;;;;;;0.00;0.00;;;;;;;4.82;69.22;100523.75;7359085;19;20399;-56
2022/12/09 11:00:59;;;;;;;0.00;0.00;;;;;;;4.93;68.78;100537.53;7359063;19;20052;-56
2022/12/09 11:03:30;;;;;;;0.03;0.03;;;;;;;4.83;68.75;100524.63;7359511;19;20007;-57
2022/12/09 11:05:58;;;;;;;0.10;0.10;;;;;;;4.93;68.99;100541.84;7358204;19;20010;-56
2022/12/09 11:08:24;;;;;;;0.10;0.10;;;;;;;4.89;68.79;100529.78;7360283;19;20015;-57
2022/12/09 11:10:49;;;;;;;0.00;0.00;;;;;;;5.01;68.58;100534.91;7358839;19;20037;-57
2022/12/09 11:13:18;;;;;;;0.00;0.00;;;;;;;5.06;68.41;100538.34;7358742;19;20006;-56
2022/12/09 11:15:48;;;;;;;0.00;0.00;;;;;;;5.03;67.86;100545.28;7358166;19;21791;-57
2022/12/09 11:18:20;;;;;;;0.00;0.00;;;;;;;4.89;67.47;100540.97;7358978;19;20014;-56
2022/12/09 11:21:04;;;;;;;0.10;0.10;;;;;;;4.83;68.06;100538.41;7357048;19;20039;-56
2022/12/09 11:23:30;;;;;;;0.00;0.00;;;;;;;4.63;68.33;100543.59;7357812;19;20081;-56
2022/12/09 11:26:04;;;;;;;0.00;0.00;;;;;;;4.47;68.26;100520.34;7360343;19;20026;-52
2022/12/09 11:28:38;;;;;;;0.00;0.00;;;;;;;4.39;67.79;100534.13;7358772;19;20002;-56
2022/12/09 11:31:18;;;;;;;0.10;0.10;;;;;;;4.22;67.61;100542.75;7355690;19;20081;-56
2022/12/09 11:33:55;;;;;;;0.10;0.10;;;;;;;3.97;67.95;100539.28;7357758;19;20125;-56
2022/12/09 11:36:34;;;;;;;0.00;0.00;;;;;;;3.89;68.01;100558.19;7359758;19;20035;-56
2022/12/09 11:39:13;;;;;;;0.00;0.00;;;;;;;3.76;68.49;100556.47;7358178;19;20031;-55
2022/12/09 11:44:34;;;;;;;0.00;0.00;;;;;;;3.49;68.61;100551.19;7258795;19;2004411;-56